Time;durP1;ratioP1;P1;durP2;ratioP2;P2;SDS_P1;SDS_P2;PMS_P1;PMS_P2;Temp;Humidity;BMP_temperature;BMP_pressure;BME280_temperature;BME280_humidity;BME280_pressure;Samples;Min_cycle;Max_cycle;Signal;HPM_P1;HPM_P2
2021/07/03 00:02:08;;;;;;;4.22;1.00;;;;;;;;;;143734;571;46917;-86
2021/07/03 00:04:52;;;;;;;2.97;1.37;;;;;;;;;;143737;596;45021;-85
2021/07/03 00:07:19;;;;;;;2.55;1.45;;;;;;;;;;143736;573;46010;-87
2021/07/03 00:09:46;;;;;;;6.00;1.45;;;;;;;;;;143731;574;47022;-86
2021/07/03 00:12:13;;;;;;;2.85;1.75;;;;;;;;;;143732;574;46010;-86
2021/07/03 00:14:39;;;;;;;1.60;1.30;;;;;;;;;;143733;570;47020;-87
2021/07/03 00:17:06;;;;;;;2.53;1.10;;;;;;;;;;143734;571;46018;-88
2021/07/03 00:19:33;;;;;;;4.65;1.48;;;;;;;;;;143731;588;47022;-86
2021/07/03 00:22:00;;;;;;;2.30;1.37;;;;;;;;;;143730;573;46012;-87
2021/07/03 00:24:27;;;;;;;2.65;1.40;;;;;;;;;;143732;583;46029;-86
2021/07/03 00:26:54;;;;;;;9.27;1.35;;;;;;;;;;143733;599;46013;-87
2021/07/03 00:29:20;;;;;;;2.47;1.45;;;;;;;;;;143730;675;47022;-87
2021/07/03 00:31:47;;;;;;;4.55;1.50;;;;;;;;;;143732;743;46010;-88
2021/07/03 00:34:26;;;;;;;3.03;1.40;;;;;;;;;;143733;698;46012;-88
2021/07/03 00:36:54;;;;;;;3.67;1.73;;;;;;;;;;143738;595;46010;-87
2021/07/03 00:39:21;;;;;;;7.25;1.62;;;;;;;;;;143732;577;46022;-87
2021/07/03 00:41:51;;;;;;;4.07;1.50;;;;;;;;;;143730;643;46012;-86
2021/07/03 00:44:29;;;;;;;3.00;1.35;;;;;;;;;;143734;584;47020;-86
2021/07/03 00:46:56;;;;;;;5.12;1.75;;;;;;;;;;143733;610;46012;-87
2021/07/03 00:49:23;;;;;;;2.42;1.20;;;;;;;;;;143730;745;47022;-88
2021/07/03 00:51:50;;;;;;;2.65;1.85;;;;;;;;;;143733;564;46010;-85
2021/07/03 00:54:17;;;;;;;2.20;1.55;;;;;;;;;;143733;585;46020;-87
2021/07/03 00:56:43;;;;;;;1.70;1.17;;;;;;;;;;143734;973;46021;-88
2021/07/03 00:59:10;;;;;;;2.58;1.83;;;;;;;;;;143730;970;47020;-87
2021/07/03 01:01:37;;;;;;;2.65;1.35;;;;;;;;;;143732;573;46010;-88
2021/07/03 01:04:04;;;;;;;4.37;1.20;;;;;;;;;;143735;972;46021;-88
2021/07/03 01:06:34;;;;;;;3.10;1.73;;;;;;;;;;143733;569;46018;-88
2021/07/03 01:09:01;;;;;;;5.70;1.33;;;;;;;;;;143732;570;46022;-87
2021/07/03 01:11:28;;;;;;;1.77;1.42;;;;;;;;;;143727;842;47013;-89
2021/07/03 01:13:55;;;;;;;1.87;1.33;;;;;;;;;;143731;595;47020;-87
2021/07/03 01:16:22;;;;;;;3.22;1.80;;;;;;;;;;143735;620;46010;-87
2021/07/03 01:18:49;;;;;;;1.98;1.37;;;;;;;;;;143732;810;47023;-88
2021/07/03 01:21:18;;;;;;;4.07;1.48;;;;;;;;;;143732;979;46012;-87
2021/07/03 01:23:51;;;;;;;4.72;1.45;;;;;;;;;;143732;569;46020;-87
2021/07/03 01:26:17;;;;;;;4.25;2.05;;;;;;;;;;143734;955;46010;-87
2021/07/03 01:28:47;;;;;;;2.55;1.62;;;;;;;;;;143732;982;46023;-87
2021/07/03 01:31:25;;;;;;;4.05;1.62;;;;;;;;;;143729;980;46020;-88
2021/07/03 01:33:52;;;;;;;6.25;2.25;;;;;;;;;;143731;576;47021;-88
2021/07/03 01:36:36;;;;;;;3.05;1.73;;;;;;;;;;143734;981;46018;-86
2021/07/03 01:39:24;;;;;;;4.28;1.62;;;;;;;;;;143730;761;47022;-86
2021/07/03 01:42:15;;;;;;;3.67;1.27;;;;;;;;;;143733;792;46020;-87
2021/07/03 01:44:47;;;;;;;3.65;1.70;;;;;;;;;;143732;657;47020;-87
2021/07/03 01:47:19;;;;;;;5.97;1.35;;;;;;;;;;143734;926;46012;-85
2021/07/03 01:49:50;;;;;;;3.72;1.65;;;;;;;;;;143731;900;47023;-85
2021/07/03 01:52:18;;;;;;;3.75;1.50;;;;;;;;;;143731;566;46010;-88
2021/07/03 01:54:45;;;;;;;3.20;1.50;;;;;;;;;;143734;675;46020;-86
2021/07/03 01:57:14;;;;;;;5.25;1.70;;;;;;;;;;143734;782;46021;-86
2021/07/03 02:00:13;;;;;;;3.87;2.17;;;;;;;;;;143731;831;47022;-86
2021/07/03 02:02:44;;;;;;;6.50;1.87;;;;;;;;;;143731;575;46012;-85
2021/07/03 02:05:12;;;;;;;5.03;1.48;;;;;;;;;;143733;981;47021;-88
2021/07/03 02:07:40;;;;;;;6.68;1.85;;;;;;;;;;143735;577;46010;-87
2021/07/03 02:10:08;;;;;;;3.70;1.80;;;;;;;;;;143733;593;46044;-87
2021/07/03 02:12:35;;;;;;;3.25;1.50;;;;;;;;;;143730;578;46012;-86
2021/07/03 02:15:09;;;;;;;4.78;1.65;;;;;;;;;;143731;586;47020;-87
2021/07/03 02:17:38;;;;;;;5.78;1.90;;;;;;;;;;143733;564;46010;-85
2021/07/03 02:20:06;;;;;;;5.90;1.83;;;;;;;;;;143731;913;46023;-88
2021/07/03 02:22:41;;;;;;;6.55;1.60;;;;;;;;;;143731;945;46012;-85
2021/07/03 02:25:17;;;;;;;5.65;2.20;;;;;;;;;;143734;973;47020;-86
2021/07/03 02:27:44;;;;;;;2.20;1.85;;;;;;;;;;143734;687;46012;-85
2021/07/03 02:30:13;;;;;;;12.85;2.62;;;;;;;;;;143731;575;47020;-86
2021/07/03 02:32:41;;;;;;;4.85;3.00;;;;;;;;;;143733;976;46012;-90
2021/07/03 02:35:09;;;;;;;6.40;2.78;;;;;;;;;;143735;958;46021;-87
2021/07/03 02:37:36;;;;;;;6.05;2.00;;;;;;;;;;143734;584;46010;-88
2021/07/03 02:40:06;;;;;;;3.25;2.33;;;;;;;;;;143730;579;47022;-87
2021/07/03 02:42:32;;;;;;;5.97;2.80;;;;;;;;;;143731;624;46012;-89
2021/07/03 02:44:59;;;;;;;10.77;2.20;;;;;;;;;;143734;564;46018;-87
2021/07/03 02:47:26;;;;;;;18.92;2.95;;;;;;;;;;143735;750;46010;-89
2021/07/03 02:49:53;;;;;;;4.47;2.22;;;;;;;;;;143733;879;47023;-88
2021/07/03 02:52:19;;;;;;;2.75;1.98;;;;;;;;;;143732;585;46012;-88
2021/07/03 02:54:48;;;;;;;9.80;2.65;;;;;;;;;;143735;944;46012;-86
2021/07/03 02:57:15;;;;;;;4.68;2.50;;;;;;;;;;143733;610;46012;-87
2021/07/03 02:59:42;;;;;;;6.45;2.30;;;;;;;;;;143732;597;47022;-87
2021/07/03 03:02:09;;;;;;;9.63;2.92;;;;;;;;;;143732;569;46013;-87
2021/07/03 03:04:37;;;;;;;4.60;1.98;;;;;;;;;;143732;604;47020;-87
2021/07/03 03:07:05;;;;;;;9.75;2.10;;;;;;;;;;143734;589;46012;-87
2021/07/03 03:09:32;;;;;;;6.97;2.20;;;;;;;;;;143732;586;47021;-86
2021/07/03 03:11:59;;;;;;;6.22;2.03;;;;;;;;;;143732;572;46012;-88
2021/07/03 03:14:26;;;;;;;5.53;2.20;;;;;;;;;;143733;625;47020;-86
2021/07/03 03:16:53;;;;;;;16.73;2.60;;;;;;;;;;143734;586;46012;-86
2021/07/03 03:19:19;;;;;;;4.43;2.10;;;;;;;;;;143734;592;46020;-89
2021/07/03 03:21:46;;;;;;;12.52;2.40;;;;;;;;;;143731;972;46010;-86
2021/07/03 03:24:13;;;;;;;9.60;2.10;;;;;;;;;;143734;954;46021;-85
2021/07/03 03:26:40;;;;;;;7.65;2.45;;;;;;;;;;143734;574;46010;-84
2021/07/03 03:29:06;;;;;;;8.93;2.10;;;;;;;;;;143730;585;47022;-85
2021/07/03 03:31:33;;;;;;;12.00;2.30;;;;;;;;;;143732;577;46012;-87
2021/07/03 03:34:00;;;;;;;7.03;2.15;;;;;;;;;;143734;605;46021;-91
2021/07/03 03:36:28;;;;;;;7.72;2.00;;;;;;;;;;143733;595;46012;-87
2021/07/03 03:38:54;;;;;;;11.48;2.33;;;;;;;;;;143729;593;47022;-88
2021/07/03 03:41:21;;;;;;;4.35;1.92;;;;;;;;;;143731;587;46013;-87
2021/07/03 03:43:48;;;;;;;9.02;2.35;;;;;;;;;;143733;573;46020;-86
2021/07/03 03:46:14;;;;;;;7.00;1.85;;;;;;;;;;143735;638;46011;-90
2021/07/03 03:48:41;;;;;;;3.30;1.60;;;;;;;;;;143732;576;47021;-86
2021/07/03 03:51:08;;;;;;;6.25;1.80;;;;;;;;;;143734;585;46010;-87
2021/07/03 03:53:35;;;;;;;8.88;1.65;;;;;;;;;;143732;585;46019;-88
2021/07/03 03:56:01;;;;;;;20.65;2.20;;;;;;;;;;143735;635;46018;-87
2021/07/03 03:58:28;;;;;;;7.97;1.45;;;;;;;;;;143731;592;47022;-87
2021/07/03 04:00:55;;;;;;;7.72;1.77;;;;;;;;;;143733;565;46010;-87
2021/07/03 04:03:21;;;;;;;9.65;1.80;;;;;;;;;;143732;564;46014;-88
2021/07/03 04:05:48;;;;;;;15.38;2.20;;;;;;;;;;143734;610;46012;-89
2021/07/03 04:08:15;;;;;;;5.22;1.67;;;;;;;;;;143732;585;46014;-91
2021/07/03 04:10:42;;;;;;;3.45;1.50;;;;;;;;;;143732;578;46010;-88
2021/07/03 04:13:09;;;;;;;7.90;1.87;;;;;;;;;;143731;589;47020;-87
2021/07/03 04:15:36;;;;;;;3.05;2.22;;;;;;;;;;143735;623;46020;-88
2021/07/03 04:18:03;;;;;;;15.38;2.08;;;;;;;;;;143731;577;47020;-88
2021/07/03 04:20:30;;;;;;;3.92;2.03;;;;;;;;;;143731;599;47020;-89
2021/07/03 04:22:57;;;;;;;5.78;1.40;;;;;;;;;;143735;565;46048;-90
2021/07/03 04:25:25;;;;;;;4.47;1.48;;;;;;;;;;143735;599;46020;-88
2021/07/03 04:27:52;;;;;;;4.95;1.55;;;;;;;;;;143732;625;47022;-88
2021/07/03 04:30:20;;;;;;;2.95;1.95;;;;;;;;;;143732;576;46012;-88
2021/07/03 04:32:47;;;;;;;7.55;2.30;;;;;;;;;;143733;570;47021;-88
2021/07/03 04:35:16;;;;;;;3.80;1.92;;;;;;;;;;143734;573;46012;-88
2021/07/03 04:37:42;;;;;;;5.10;2.03;;;;;;;;;;143735;592;47020;-88
2021/07/03 04:40:10;;;;;;;7.85;1.83;;;;;;;;;;143732;565;46012;-88
2021/07/03 04:42:37;;;;;;;4.22;1.77;;;;;;;;;;143733;795;47020;-88
2021/07/03 04:45:05;;;;;;;8.63;2.40;;;;;;;;;;143736;577;46010;-88
2021/07/03 04:47:31;;;;;;;5.10;2.12;;;;;;;;;;143733;607;47021;-86
2021/07/03 04:49:58;;;;;;;3.00;1.62;;;;;;;;;;143733;649;46917;-88
2021/07/03 04:52:26;;;;;;;5.00;1.33;;;;;;;;;;143734;593;47009;-90
2021/07/03 04:54:53;;;;;;;7.45;2.03;;;;;;;;;;143734;709;46010;-89
2021/07/03 04:57:20;;;;;;;2.90;1.48;;;;;;;;;;143732;643;47022;-87
2021/07/03 04:59:46;;;;;;;7.07;1.92;;;;;;;;;;143733;575;46010;-85
2021/07/03 05:02:14;;;;;;;3.67;1.80;;;;;;;;;;143735;569;47021;-86
2021/07/03 05:04:42;;;;;;;7.43;1.77;;;;;;;;;;143736;564;46018;-85
2021/07/03 05:07:22;;;;;;;4.03;1.40;;;;;;;;;;143734;596;46049;-90
2021/07/03 05:09:49;;;;;;;4.82;2.03;;;;;;;;;;143733;677;46021;-89
2021/07/03 05:12:15;;;;;;;10.68;3.03;;;;;;;;;;143735;578;47020;-88
2021/07/03 05:14:42;;;;;;;2.97;1.40;;;;;;;;;;143734;590;46012;-88
2021/07/03 05:17:09;;;;;;;1.98;1.20;;;;;;;;;;143733;752;47021;-90
2021/07/03 05:19:36;;;;;;;3.95;1.45;;;;;;;;;;143733;565;46010;-89
2021/07/03 05:22:03;;;;;;;8.15;1.42;;;;;;;;;;143735;613;46020;-86
2021/07/03 05:24:30;;;;;;;10.38;1.33;;;;;;;;;;143736;589;46012;-87
2021/07/03 05:26:56;;;;;;;5.60;1.17;;;;;;;;;;143732;566;47023;-88
2021/07/03 05:29:23;;;;;;;7.70;1.62;;;;;;;;;;143733;975;46010;-89
2021/07/03 05:31:51;;;;;;;3.80;1.85;;;;;;;;;;143733;629;47018;-88
2021/07/03 05:34:18;;;;;;;8.40;1.98;;;;;;;;;;143737;763;46010;-87
2021/07/03 05:36:47;;;;;;;8.52;2.08;;;;;;;;;;143736;622;46020;-90
2021/07/03 05:39:13;;;;;;;15.35;1.90;;;;;;;;;;143733;615;46021;-90
2021/07/03 05:41:40;;;;;;;3.37;1.55;;;;;;;;;;143735;581;47020;-88
2021/07/03 05:44:07;;;;;;;5.30;2.00;;;;;;;;;;143736;569;46010;-88
2021/07/03 05:46:35;;;;;;;4.72;1.70;;;;;;;;;;143736;957;46049;-90
2021/07/03 05:49:02;;;;;;;9.98;2.00;;;;;;;;;;143732;566;46012;-89
2021/07/03 05:51:29;;;;;;;6.07;1.60;;;;;;;;;;143735;600;46012;-91
2021/07/03 05:53:56;;;;;;;4.50;1.10;;;;;;;;;;143735;627;46013;-91
2021/07/03 05:56:23;;;;;;;3.97;1.58;;;;;;;;;;143733;753;47023;-88
2021/07/03 05:58:50;;;;;;;5.15;1.77;;;;;;;;;;143733;972;46012;-88
2021/07/03 06:01:17;;;;;;;8.25;1.90;;;;;;;;;;143735;588;46021;-91
2021/07/03 06:03:43;;;;;;;3.22;1.20;;;;;;;;;;143736;583;46012;-90
2021/07/03 06:06:11;;;;;;;5.82;1.60;;;;;;;;;;143734;924;46014;-90
2021/07/03 06:08:38;;;;;;;3.33;1.25;;;;;;;;;;143733;834;46012;-90
2021/07/03 06:11:05;;;;;;;3.70;1.40;;;;;;;;;;143733;609;47020;-92
2021/07/03 06:13:31;;;;;;;8.43;2.03;;;;;;;;;;143737;969;46010;-93
2021/07/03 06:15:58;;;;;;;2.40;1.50;;;;;;;;;;143732;772;47021;-91
2021/07/03 06:18:26;;;;;;;2.72;1.37;;;;;;;;;;143734;579;45918;-91
2021/07/03 06:20:53;;;;;;;3.78;1.30;;;;;;;;;;143735;583;46020;-92
2021/07/03 06:23:24;;;;;;;5.05;1.55;;;;;;;;;;143739;568;46021;-90
2021/07/03 06:25:51;;;;;;;2.17;1.60;;;;;;;;;;143732;973;47023;-90
2021/07/03 06:28:18;;;;;;;3.22;1.27;;;;;;;;;;143734;574;46010;-90
2021/07/03 06:30:44;;;;;;;1.67;1.23;;;;;;;;;;143733;908;47019;-89
2021/07/03 06:33:11;;;;;;;1.25;1.15;;;;;;;;;;143736;833;46010;-89
2021/07/03 06:35:41;;;;;;;5.07;1.52;;;;;;;;;;143732;728;47022;-91
2021/07/03 06:38:08;;;;;;;2.75;1.35;;;;;;;;;;143733;971;46011;-89
2021/07/03 06:40:34;;;;;;;3.95;2.25;;;;;;;;;;143734;972;47012;-91
2021/07/03 06:43:01;;;;;;;4.90;1.77;;;;;;;;;;143735;678;46012;-87
2021/07/03 06:45:28;;;;;;;2.65;1.30;;;;;;;;;;143735;578;47020;-92
2021/07/03 06:48:07;;;;;;;2.58;1.12;;;;;;;;;;143736;977;46020;-88
2021/07/03 06:50:34;;;;;;;8.95;1.10;;;;;;;;;;143736;979;46020;-88
2021/07/03 06:53:00;;;;;;;1.70;1.30;;;;;;;;;;143738;692;46020;-89
2021/07/03 06:55:27;;;;;;;4.10;1.20;;;;;;;;;;143734;951;46052;-89
2021/07/03 06:57:54;;;;;;;2.33;1.12;;;;;;;;;;143733;978;46010;-90
2021/07/03 07:00:21;;;;;;;3.92;1.20;;;;;;;;;;143735;953;46047;-92
2021/07/03 07:02:47;;;;;;;1.80;1.30;;;;;;;;;;143736;569;46020;-91
2021/07/03 07:05:14;;;;;;;3.28;1.50;;;;;;;;;;143734;682;47020;-91
2021/07/03 07:07:41;;;;;;;4.50;1.42;;;;;;;;;;143734;958;46010;-92
2021/07/03 07:10:09;;;;;;;2.42;1.45;;;;;;;;;;143735;718;46018;-91
2021/07/03 07:12:35;;;;;;;4.00;1.73;;;;;;;;;;143735;592;46010;-90
2021/07/03 07:15:02;;;;;;;2.58;1.40;;;;;;;;;;143735;586;46020;-90
2021/07/03 07:17:29;;;;;;;1.92;1.40;;;;;;;;;;143735;599;46010;-89
2021/07/03 07:19:56;;;;;;;2.60;1.15;;;;;;;;;;143734;712;46020;-88
2021/07/03 07:22:23;;;;;;;5.05;1.20;;;;;;;;;;143737;580;46021;-88
2021/07/03 07:24:50;;;;;;;1.77;1.37;;;;;;;;;;143735;709;46023;-90
2021/07/03 07:27:17;;;;;;;1.83;1.25;;;;;;;;;;143735;664;46010;-90
2021/07/03 07:29:44;;;;;;;5.20;1.40;;;;;;;;;;143735;569;46020;-90
2021/07/03 07:32:10;;;;;;;1.87;1.40;;;;;;;;;;143739;596;46020;-88
2021/07/03 07:34:37;;;;;;;2.70;1.20;;;;;;;;;;143731;980;47022;-92
2021/07/03 07:37:05;;;;;;;9.43;1.37;;;;;;;;;;143733;721;46915;-88
2021/07/03 07:39:32;;;;;;;5.18;1.27;;;;;;;;;;143734;575;47020;-91
2021/07/03 07:41:59;;;;;;;1.85;1.20;;;;;;;;;;143737;607;46010;-93
2021/07/03 07:44:26;;;;;;;4.35;1.52;;;;;;;;;;143736;572;46021;-89
2021/07/03 07:46:53;;;;;;;4.00;1.15;;;;;;;;;;143731;610;46012;-90
2021/07/03 07:49:19;;;;;;;6.85;2.00;;;;;;;;;;143734;579;46020;-91
2021/07/03 07:51:46;;;;;;;3.87;1.52;;;;;;;;;;143736;703;46010;-90
2021/07/03 07:54:13;;;;;;;3.42;1.62;;;;;;;;;;143734;674;46023;-91
2021/07/03 07:56:40;;;;;;;2.75;1.87;;;;;;;;;;143736;662;46020;-91
2021/07/03 07:59:07;;;;;;;7.72;1.65;;;;;;;;;;143736;570;46020;-89
2021/07/03 08:01:37;;;;;;;6.22;1.83;;;;;;;;;;143737;586;46018;-88
2021/07/03 08:04:05;;;;;;;3.97;1.73;;;;;;;;;;143735;570;47020;-92
2021/07/03 08:06:33;;;;;;;7.97;1.65;;;;;;;;;;143737;589;46010;-88
2021/07/03 08:08:59;;;;;;;2.30;1.00;;;;;;;;;;143736;593;47021;-89
2021/07/03 08:11:27;;;;;;;4.00;1.30;;;;;;;;;;143737;930;46010;-89
2021/07/03 08:13:54;;;;;;;1.87;1.27;;;;;;;;;;143734;576;46022;-89
2021/07/03 08:16:21;;;;;;;2.20;1.65;;;;;;;;;;143734;681;46010;-87
2021/07/03 08:18:48;;;;;;;1.87;1.55;;;;;;;;;;143734;573;47020;-88
2021/07/03 08:21:16;;;;;;;2.30;1.35;;;;;;;;;;143738;570;46010;-91
2021/07/03 08:23:43;;;;;;;4.55;1.27;;;;;;;;;;143731;587;47020;-89
2021/07/03 08:26:10;;;;;;;5.60;2.22;;;;;;;;;;143733;576;46012;-90
2021/07/03 08:28:37;;;;;;;3.92;1.37;;;;;;;;;;143735;577;46020;-87
2021/07/03 08:31:04;;;;;;;3.20;2.00;;;;;;;;;;143737;575;46010;-89
2021/07/03 08:33:32;;;;;;;4.53;1.75;;;;;;;;;;143735;574;46022;-86
2021/07/03 08:35:58;;;;;;;3.15;1.58;;;;;;;;;;143735;569;46010;-88
2021/07/03 08:38:25;;;;;;;4.00;1.42;;;;;;;;;;143736;575;47021;-91
2021/07/03 08:40:54;;;;;;;4.70;2.12;;;;;;;;;;143737;777;46010;-85
2021/07/03 08:43:21;;;;;;;2.92;1.90;;;;;;;;;;143733;590;46022;-89
2021/07/03 08:45:54;;;;;;;3.17;1.67;;;;;;;;;;143734;564;46012;-91
2021/07/03 08:48:20;;;;;;;5.50;1.87;;;;;;;;;;143734;570;47020;-88
2021/07/03 08:50:47;;;;;;;2.65;1.77;;;;;;;;;;143734;570;47010;-90
2021/07/03 08:53:13;;;;;;;2.28;1.45;;;;;;;;;;143735;573;46021;-88
2021/07/03 08:55:40;;;;;;;5.07;1.70;;;;;;;;;;143735;564;46010;-88
2021/07/03 08:58:08;;;;;;;4.53;1.62;;;;;;;;;;143735;576;46020;-88
2021/07/03 09:00:38;;;;;;;4.87;1.92;;;;;;;;;;143735;605;46012;-89
2021/07/03 09:03:18;;;;;;;2.33;1.50;;;;;;;;;;143732;731;47022;-89
2021/07/03 09:05:56;;;;;;;2.00;1.80;;;;;;;;;;143729;573;48020;-88
2021/07/03 09:08:24;;;;;;;2.40;1.52;;;;;;;;;;143733;564;46021;-90
2021/07/03 09:11:10;;;;;;;2.08;1.45;;;;;;;;;;143733;585;46020;-89
2021/07/03 09:13:39;;;;;;;3.03;2.17;;;;;;;;;;143731;574;47020;-91
2021/07/03 09:16:06;;;;;;;4.78;1.40;;;;;;;;;;143732;675;46915;-87
2021/07/03 09:18:33;;;;;;;1.80;1.40;;;;;;;;;;143734;598;46020;-91
2021/07/03 09:21:05;;;;;;;2.53;1.65;;;;;;;;;;143734;564;46010;-89
2021/07/03 09:23:39;;;;;;;1.58;1.35;;;;;;;;;;143734;569;46021;-91
2021/07/03 09:26:11;;;;;;;3.92;1.87;;;;;;;;;;143732;634;46010;-90
2021/07/03 09:28:40;;;;;;;5.45;2.22;;;;;;;;;;143733;564;46020;-88
2021/07/03 09:31:08;;;;;;;12.05;2.12;;;;;;;;;;143732;600;47010;-90
2021/07/03 09:33:47;;;;;;;2.10;1.83;;;;;;;;;;143732;624;47022;-89
2021/07/03 09:36:15;;;;;;;4.30;2.00;;;;;;;;;;143731;707;46012;-88
2021/07/03 09:38:44;;;;;;;9.52;2.05;;;;;;;;;;143735;592;46020;-89
2021/07/03 09:41:34;;;;;;;3.65;1.98;;;;;;;;;;143733;569;46020;-89
2021/07/03 09:44:07;;;;;;;4.18;1.70;;;;;;;;;;143730;564;47029;-89
2021/07/03 09:46:48;;;;;;;6.07;2.10;;;;;;;;;;143732;598;46010;-89
2021/07/03 09:49:25;;;;;;;6.22;2.47;;;;;;;;;;143732;728;47020;-90
2021/07/03 09:51:57;;;;;;;6.57;2.15;;;;;;;;;;143733;607;47010;-91
2021/07/03 09:54:28;;;;;;;10.23;2.12;;;;;;;;;;143731;575;46023;-91
2021/07/03 09:57:01;;;;;;;5.03;2.20;;;;;;;;;;143733;567;47020;-90
2021/07/03 09:59:31;;;;;;;7.35;2.28;;;;;;;;;;143733;625;46021;-90
2021/07/03 10:01:59;;;;;;;5.45;2.22;;;;;;;;;;143733;594;46020;-90
2021/07/03 10:04:25;;;;;;;5.20;2.50;;;;;;;;;;143733;593;47020;-88
2021/07/03 10:07:18;;;;;;;5.60;1.85;;;;;;;;;;143734;564;46011;-85
2021/07/03 10:09:55;;;;;;;;;;;;;;;;;;143743;953;46020;-90
2021/07/03 10:12:28;;;;;;;4.15;2.50;;;;;;;;;;143741;578;46012;-92
2021/07/03 10:14:56;;;;;;;6.43;5.15;;;;;;;;;;143732;591;47023;-91
2021/07/03 10:17:29;;;;;;;6.03;2.15;;;;;;;;;;143732;591;46012;-91
2021/07/03 10:19:55;;;;;;;;;;;;;;;;;;143741;982;46020;-91
2021/07/03 10:22:31;;;;;;;5.15;2.08;;;;;;;;;;143747;599;45021;-91
2021/07/03 10:25:19;;;;;;;5.68;2.33;;;;;;;;;;143735;684;46020;-93
2021/07/03 10:27:54;;;;;;;3.85;2.65;;;;;;;;;;143732;577;46010;-88
2021/07/03 10:30:26;;;;;;;5.97;2.45;;;;;;;;;;143732;656;46021;-89
2021/07/03 10:33:07;;;;;;;6.60;2.47;;;;;;;;;;143732;571;46012;-91
2021/07/03 10:35:56;;;;;;;4.12;2.08;;;;;;;;;;143734;630;46020;-90
2021/07/03 10:38:28;;;;;;;4.60;2.65;;;;;;;;;;143732;567;46010;-92
2021/07/03 10:41:15;;;;;;;4.28;2.17;;;;;;;;;;143733;693;46020;-92
2021/07/03 10:44:20;;;;;;;3.65;2.25;;;;;;;;;;143733;706;46020;-90
2021/07/03 10:46:48;;;;;;;4.03;2.30;;;;;;;;;;143731;573;47024;-91
2021/07/03 10:49:19;;;;;;;5.43;1.98;;;;;;;;;;143732;587;46010;-91
2021/07/03 10:51:48;;;;;;;6.97;1.93;;;;;;;;;;143734;594;46021;-90
2021/07/03 10:54:29;;;;;;;3.60;2.22;;;;;;;;;;143735;609;46010;-89
2021/07/03 11:00:01;;;;;;;3.70;2.15;;;;;;;;;;143733;585;46021;-91
2021/07/03 11:02:32;;;;;;;2.90;1.85;;;;;;;;;;143734;663;47020;-91
2021/07/03 11:05:09;;;;;;;7.78;2.67;;;;;;;;;;143737;565;46020;-91
2021/07/03 11:07:39;;;;;;;6.53;1.87;;;;;;;;;;143735;570;46014;-92
2021/07/03 11:10:26;;;;;;;6.85;2.42;;;;;;;;;;143731;673;46012;-92
2021/07/03 11:12:55;;;;;;;14.15;2.47;;;;;;;;;;143734;570;46013;-94
2021/07/03 11:15:27;;;;;;;3.28;2.28;;;;;;;;;;143737;750;46018;-93
2021/07/03 11:17:56;;;;;;;14.37;2.30;;;;;;;;;;143734;647;46020;-91
2021/07/03 11:20:36;;;;;;;5.87;1.95;;;;;;;;;;143731;680;46021;-92
2021/07/03 11:23:06;;;;;;;4.43;2.03;;;;;;;;;;143736;601;46018;-92
2021/07/03 11:25:46;;;;;;;5.05;2.15;;;;;;;;;;143736;588;46020;-90
2021/07/03 11:28:17;;;;;;;2.20;1.90;;;;;;;;;;143732;576;46022;-91
2021/07/03 11:30:53;;;;;;;3.92;2.17;;;;;;;;;;143731;684;46012;-87
2021/07/03 11:33:20;;;;;;;4.80;2.10;;;;;;;;;;143735;576;46020;-91
2021/07/03 11:35:51;;;;;;;3.80;3.28;;;;;;;;;;143736;697;46010;-90
2021/07/03 11:38:23;;;;;;;4.95;3.15;;;;;;;;;;143731;694;46012;-89
2021/07/03 11:40:54;;;;;;;7.10;2.25;;;;;;;;;;143731;627;46010;-90
2021/07/03 11:43:22;;;;;;;6.62;1.90;;;;;;;;;;143734;589;46020;-89
2021/07/03 11:45:51;;;;;;;8.20;2.83;;;;;;;;;;143735;571;46010;-91
2021/07/03 11:48:22;;;;;;;4.90;1.67;;;;;;;;;;143733;666;46022;-89
2021/07/03 11:50:52;;;;;;;7.25;2.33;;;;;;;;;;143732;632;46020;-91
2021/07/03 11:53:22;;;;;;;8.25;2.78;;;;;;;;;;143733;680;46012;-92
2021/07/03 11:55:53;;;;;;;7.45;2.40;;;;;;;;;;143736;608;46010;-93
2021/07/03 11:58:28;;;;;;;7.55;2.35;;;;;;;;;;143732;724;46022;-91
2021/07/03 12:00:57;;;;;;;5.47;2.00;;;;;;;;;;143732;573;46918;-92
2021/07/03 12:03:35;;;;;;;3.72;1.95;;;;;;;;;;143734;703;46020;-94
2021/07/03 12:06:04;;;;;;;3.95;2.22;;;;;;;;;;143730;727;48021;-91
2021/07/03 12:08:37;;;;;;;4.07;2.03;;;;;;;;;;143732;564;46044;-91
2021/07/03 12:11:06;;;;;;;7.12;5.65;;;;;;;;;;143734;615;46020;-89
2021/07/03 12:13:38;;;;;;;6.95;2.80;;;;;;;;;;143732;643;46021;-89
2021/07/03 12:16:13;;;;;;;8.10;2.62;;;;;;;;;;143734;664;46010;-89
2021/07/03 12:18:57;;;;;;;7.75;2.90;;;;;;;;;;143733;673;46022;-91
2021/07/03 12:21:30;;;;;;;6.75;2.50;;;;;;;;;;143732;591;46010;-91
2021/07/03 12:24:08;;;;;;;20.25;5.72;;;;;;;;;;143734;593;46020;-90
2021/07/03 12:26:54;;;;;;;5.37;2.83;;;;;;;;;;143733;583;47010;-90
2021/07/03 12:29:30;;;;;;;7.07;2.50;;;;;;;;;;143730;583;47023;-90
2021/07/03 12:32:08;;;;;;;4.80;2.15;;;;;;;;;;143732;569;46010;-91
2021/07/03 12:34:41;;;;;;;4.37;2.72;;;;;;;;;;143734;589;46021;-91
2021/07/03 12:37:10;;;;;;;;;;;;;;;;;;143740;978;46020;-91
2021/07/03 12:39:44;;;;;;;5.40;2.33;;;;;;;;;;143736;570;47022;-90
2021/07/03 12:42:13;;;;;;;2.85;1.80;;;;;;;;;;143732;580;46013;-95
2021/07/03 12:44:43;;;;;;;2.62;1.90;;;;;;;;;;143734;576;46020;-89
2021/07/03 12:47:13;;;;;;;5.10;2.33;;;;;;;;;;143734;589;47018;-91
2021/07/03 12:49:45;;;;;;;5.57;2.40;;;;;;;;;;143731;655;46022;-92
2021/07/03 12:52:13;;;;;;;5.07;2.83;;;;;;;;;;143731;592;46020;-88
2021/07/03 12:54:42;;;;;;;5.32;2.25;;;;;;;;;;143734;565;47020;-90
2021/07/03 12:57:10;;;;;;;7.37;2.53;;;;;;;;;;143732;585;46013;-93
2021/07/03 12:59:43;;;;;;;7.50;2.40;;;;;;;;;;143732;638;46023;-90
2021/07/03 13:02:14;;;;;;;5.60;2.33;;;;;;;;;;143733;605;46012;-91
2021/07/03 13:04:45;;;;;;;4.15;1.90;;;;;;;;;;143731;589;47021;-90
2021/07/03 13:07:21;;;;;;;2.05;1.73;;;;;;;;;;143734;598;47021;-89
2021/07/03 13:09:48;;;;;;;3.85;1.75;;;;;;;;;;143732;620;47020;-91
2021/07/03 13:12:16;;;;;;;7.03;1.62;;;;;;;;;;143730;588;46917;-92
2021/07/03 13:14:46;;;;;;;1.58;1.45;;;;;;;;;;143733;588;46020;-91
2021/07/03 13:17:13;;;;;;;2.67;1.35;;;;;;;;;;143733;718;46012;-94
2021/07/03 13:19:42;;;;;;;2.72;1.50;;;;;;;;;;143731;593;46015;-94
2021/07/03 13:22:10;;;;;;;2.80;2.00;;;;;;;;;;143732;630;46012;-92
2021/07/03 13:24:36;;;;;;;10.40;2.45;;;;;;;;;;143733;564;46014;-91
2021/07/03 13:27:03;;;;;;;3.22;2.10;;;;;;;;;;143734;685;46012;-92
2021/07/03 13:29:31;;;;;;;7.00;2.00;;;;;;;;;;143731;661;46023;-91
2021/07/03 13:31:58;;;;;;;4.57;2.35;;;;;;;;;;143733;619;46020;-91
2021/07/03 13:34:25;;;;;;;3.30;2.10;;;;;;;;;;143733;626;46021;-91
2021/07/03 13:36:56;;;;;;;6.70;2.30;;;;;;;;;;143736;682;46012;-92
2021/07/03 13:39:22;;;;;;;4.03;2.42;;;;;;;;;;143732;630;46016;-91
2021/07/03 13:41:50;;;;;;;14.15;2.72;;;;;;;;;;143731;600;46021;-92
2021/07/03 13:44:17;;;;;;;7.80;2.50;;;;;;;;;;143733;592;47020;-92
2021/07/03 13:46:45;;;;;;;2.65;2.10;;;;;;;;;;143734;634;46012;-92
2021/07/03 13:49:16;;;;;;;5.80;3.28;;;;;;;;;;143733;600;47020;-93
2021/07/03 13:51:43;;;;;;;2.77;2.20;;;;;;;;;;143731;644;46012;-93
2021/07/03 13:54:11;;;;;;;3.08;2.50;;;;;;;;;;143733;599;46048;-92
2021/07/03 13:56:37;;;;;;;4.60;2.40;;;;;;;;;;143734;571;46019;-93
2021/07/03 13:59:04;;;;;;;2.60;2.10;;;;;;;;;;143732;570;46053;-93
2021/07/03 14:01:31;;;;;;;3.08;1.92;;;;;;;;;;143730;591;46917;-94
2021/07/03 14:04:01;;;;;;;3.42;2.35;;;;;;;;;;143734;574;46020;-92
2021/07/03 14:06:31;;;;;;;2.35;2.08;;;;;;;;;;143733;625;46012;-92
2021/07/03 14:08:59;;;;;;;5.53;2.70;;;;;;;;;;143731;565;46020;-92
2021/07/03 14:11:26;;;;;;;3.37;2.17;;;;;;;;;;143731;569;46012;-92
2021/07/03 14:13:52;;;;;;;2.37;1.75;;;;;;;;;;143734;569;46020;-92
2021/07/03 14:16:20;;;;;;;4.05;2.00;;;;;;;;;;143734;589;46020;-93
2021/07/03 14:18:47;;;;;;;4.47;1.90;;;;;;;;;;143731;587;47022;-91
2021/07/03 14:21:14;;;;;;;4.18;2.00;;;;;;;;;;143730;675;46012;-91
2021/07/03 14:23:40;;;;;;;4.35;2.47;;;;;;;;;;143735;580;46020;-91
2021/07/03 14:26:09;;;;;;;2.60;2.25;;;;;;;;;;143732;664;46020;-91
2021/07/03 14:28:36;;;;;;;5.85;1.90;;;;;;;;;;143731;572;47020;-93
2021/07/03 14:31:03;;;;;;;5.82;2.42;;;;;;;;;;143731;567;46012;-92
2021/07/03 14:33:30;;;;;;;5.43;2.58;;;;;;;;;;143733;637;46020;-89
2021/07/03 14:35:56;;;;;;;7.03;2.35;;;;;;;;;;143733;576;47021;-89
2021/07/03 14:38:24;;;;;;;5.97;2.30;;;;;;;;;;143733;667;47022;-90
2021/07/03 14:40:51;;;;;;;5.18;2.15;;;;;;;;;;143731;576;46012;-92
2021/07/03 14:43:18;;;;;;;2.90;2.05;;;;;;;;;;143730;579;47021;-93
2021/07/03 14:45:44;;;;;;;5.20;2.28;;;;;;;;;;143734;580;46018;-93
2021/07/03 14:48:11;;;;;;;6.57;2.87;;;;;;;;;;143732;675;46022;-91
2021/07/03 14:50:38;;;;;;;3.35;2.40;;;;;;;;;;143730;606;46012;-94
2021/07/03 14:53:07;;;;;;;3.45;2.00;;;;;;;;;;143734;679;46020;-88
2021/07/03 14:55:34;;;;;;;5.15;2.70;;;;;;;;;;143735;619;46012;-93
2021/07/03 14:58:00;;;;;;;3.25;2.42;;;;;;;;;;143731;667;47023;-91
2021/07/03 15:00:30;;;;;;;2.45;2.17;;;;;;;;;;143728;574;47012;-91